Avinger, Texas
Current Conditions -  °F | °C
As of 4:15 AM on Friday 24 Oct 2014 (Local Time) from KOSA Reporting Station
Clear Clear  
Wind Chill: 11°   Ceiling: Unl
Heat Index: 11°   Visibility: 10mi
Dew Point: 11°   Wind: 0mph
Humidity: 96%   Direction: NA
Pressure: 30.15"   Gusts: NA
Location:  32.9°N, 94.56°W
Report Text: KOSA 240915Z AUTO 00000KT 10SM CLR 11/11 A3015 RMK AO1 T01120106
Loading
Personal Weather Stations






























Interactive Weather Map New forecast layout! Learn more

10-Day Weather Forecast

Advertisements
Track Severe Weather on mobile